Time;durP1;ratioP1;P1;durP2;ratioP2;P2;SDS_P1;SDS_P2;PMS_P1;PMS_P2;Temp;Humidity;BMP_temperature;BMP_pressure;BME280_temperature;BME280_humidity;BME280_pressure;Samples;Min_cycle;Max_cycle;Signal;HPM_P1;HPM_P2
2023/06/03 00:00:37;;;;;;;18.52;8.57;;;;;;;7.97;100.00;101876.44;10509700;28;20123;-81
2023/06/03 00:05:40;;;;;;;15.25;8.38;;;;;;;7.89;100.00;101876.75;10540268;28;20119;-80
2023/06/03 00:10:41;;;;;;;21.00;10.23;;;;;;;7.86;100.00;101873.94;10523719;28;20514;-81
2023/06/03 00:15:41;;;;;;;21.80;9.60;;;;;;;7.87;100.00;101882.66;10475881;28;20116;-81
2023/06/03 00:20:47;;;;;;;27.58;11.00;;;;;;;7.77;100.00;101879.38;10488864;28;20383;-81
2023/06/03 00:25:47;;;;;;;19.17;9.13;;;;;;;7.78;100.00;101872.44;10507602;28;20133;-81
2023/06/03 00:30:48;;;;;;;17.55;9.00;;;;;;;7.73;100.00;101882.53;10508760;28;20101;-81
2023/06/03 00:35:48;;;;;;;16.23;9.10;;;;;;;7.71;100.00;101883.19;10507496;28;20047;-80
2023/06/03 00:40:49;;;;;;;13.70;9.10;;;;;;;7.74;100.00;101888.66;10508374;28;20048;-80
2023/06/03 00:45:49;;;;;;;17.02;9.02;;;;;;;7.84;100.00;101879.84;10525896;28;20074;-80
2023/06/03 00:50:50;;;;;;;18.33;10.52;;;;;;;7.92;100.00;101884.81;10507204;28;20553;-80
2023/06/03 00:55:50;;;;;;;14.73;9.02;;;;;;;8.01;100.00;101896.72;10491306;28;20131;-81
2023/06/03 01:00:51;;;;;;;15.07;8.02;;;;;;;8.04;100.00;101890.06;10506557;28;20048;-81
2023/06/03 01:06:01;;;;;;;14.30;8.98;;;;;;;8.03;100.00;101885.63;10490130;28;21078;-81
2023/06/03 01:11:08;;;;;;;16.65;10.52;;;;;;;7.93;100.00;101888.34;10491011;28;20142;-81
2023/06/03 01:16:09;;;;;;;21.35;9.75;;;;;;;7.84;100.00;101883.34;10503808;28;20039;-81
2023/06/03 01:21:12;;;;;;;12.77;7.97;;;;;;;7.98;100.00;101881.78;10490473;28;20122;-80
2023/06/03 01:26:12;;;;;;;13.98;8.25;;;;;;;8.19;100.00;101884.16;10489398;28;20036;-81
2023/06/03 01:31:13;;;;;;;17.15;9.25;;;;;;;8.05;100.00;101871.00;10543123;28;20028;-81
2023/06/03 01:36:13;;;;;;;22.75;8.88;;;;;;;7.95;100.00;101876.34;10484988;27;20031;-81
2023/06/03 01:41:14;;;;;;;13.88;8.95;;;;;;;7.88;100.00;101872.34;10516070;28;20040;-81
2023/06/03 01:46:14;;;;;;;15.82;8.45;;;;;;;7.83;100.00;101878.03;10503191;28;20036;-81
2023/06/03 01:51:15;;;;;;;18.27;10.18;;;;;;;7.78;100.00;101877.66;10503350;28;20075;-80
2023/06/03 01:56:15;;;;;;;18.42;9.30;;;;;;;7.70;100.00;101873.56;10519895;28;20036;-80
2023/06/03 02:01:16;;;;;;;16.00;10.05;;;;;;;7.64;100.00;101877.53;10503731;28;20024;-80
2023/06/03 02:06:16;;;;;;;18.48;10.10;;;;;;;7.65;100.00;101878.44;10519355;28;20060;-80
2023/06/03 02:11:17;;;;;;;17.30;8.48;;;;;;;7.63;100.00;101880.03;10518868;28;20044;-78
2023/06/03 02:16:17;;;;;;;21.15;10.65;;;;;;;7.52;100.00;101878.31;10519575;28;20134;-81
2023/06/03 02:21:18;;;;;;;16.42;9.48;;;;;;;7.43;100.00;101878.50;10538027;28;20059;-80
2023/06/03 02:26:18;;;;;;;20.15;10.88;;;;;;;7.34;100.00;101874.41;10518114;28;20520;-80
2023/06/03 02:31:19;;;;;;;23.60;12.82;;;;;;;7.33;100.00;101890.81;10520136;28;20039;-81
2023/06/03 02:36:20;;;;;;;19.70;10.73;;;;;;;7.30;100.00;101881.88;10518286;28;20051;-81
2023/06/03 02:41:20;;;;;;;22.52;11.52;;;;;;;7.29;100.00;101891.38;10538178;28;20107;-81
2023/06/03 02:46:21;;;;;;;19.42;10.80;;;;;;;7.13;100.00;101897.09;10516347;28;20040;-80
2023/06/03 02:51:21;;;;;;;20.27;9.80;;;;;;;7.06;100.00;101905.22;10511734;28;20066;-80
2023/06/03 02:56:22;;;;;;;16.83;10.55;;;;;;;6.92;100.00;101901.50;10535667;28;20032;-80
2023/06/03 03:01:23;;;;;;;18.05;10.75;;;;;;;6.88;100.00;101900.38;10478736;28;20040;-80
2023/06/03 03:06:26;;;;;;;15.57;9.73;;;;;;;6.90;100.00;101901.41;10495178;28;20441;-81
2023/06/03 03:11:27;;;;;;;22.20;11.60;;;;;;;6.87;100.00;101908.03;10479487;28;20063;-81
2023/06/03 03:16:28;;;;;;;23.00;13.20;;;;;;;6.84;100.00;101900.00;10528119;28;20438;-80
2023/06/03 03:21:28;;;;;;;19.00;12.90;;;;;;;6.86;100.00;101907.16;10477481;28;20560;-80
2023/06/03 03:26:29;;;;;;;16.55;11.65;;;;;;;6.80;100.00;101898.84;10493702;28;20075;-80
2023/06/03 03:31:30;;;;;;;17.55;11.23;;;;;;;6.92;100.00;101906.72;10506582;28;20096;-80
2023/06/03 03:36:31;;;;;;;19.10;11.60;;;;;;;7.05;100.00;101901.69;10476774;28;20028;-80
2023/06/03 03:41:32;;;;;;;21.27;12.60;;;;;;;7.18;100.00;101908.78;10510900;28;20059;-80
2023/06/03 03:46:33;;;;;;;21.50;13.30;;;;;;;7.32;100.00;101920.25;10493337;28;20047;-81
2023/06/03 03:51:34;;;;;;;23.05;12.57;;;;;;;7.37;100.00;101915.41;10492853;28;20038;-80
2023/06/03 03:56:34;;;;;;;27.27;11.15;;;;;;;7.43;100.00;101915.88;10492007;28;20036;-80
2023/06/03 04:01:38;;;;;;;19.90;11.80;;;;;;;7.60;100.00;101919.78;10510314;28;20139;-79
2023/06/03 04:06:39;;;;;;;21.48;10.50;;;;;;;7.72;100.00;101917.22;10492224;28;20414;-79
2023/06/03 04:11:43;;;;;;;15.60;8.83;;;;;;;7.94;100.00;101924.06;10469609;28;20044;-80
2023/06/03 04:16:57;;;;;;;16.05;10.73;;;;;;;8.14;100.00;101928.13;10508808;28;20055;-81
2023/06/03 04:22:00;;;;;;;16.60;9.68;;;;;;;8.30;100.00;101926.66;10526737;28;20130;-81
2023/06/03 04:27:06;;;;;;;19.02;10.60;;;;;;;8.56;100.00;101933.84;10488098;28;20043;-80
2023/06/03 04:32:07;;;;;;;17.73;9.98;;;;;;;8.91;100.00;101931.94;10491422;28;20394;-79
2023/06/03 04:37:07;;;;;;;21.17;12.93;;;;;;;9.26;100.00;101928.31;10486671;28;20115;-81
2023/06/03 04:42:10;;;;;;;25.20;12.80;;;;;;;9.62;100.00;101925.53;10505509;28;20032;-83
2023/06/03 04:47:11;;;;;;;15.95;9.57;;;;;;;9.84;100.00;101913.13;10521163;28;20040;-82
2023/06/03 04:52:12;;;;;;;13.07;7.60;;;;;;;9.91;100.00;101903.09;10508314;28;20119;-82
2023/06/03 04:57:12;;;;;;;12.30;7.32;;;;;;;10.04;100.00;101890.03;10476745;28;20028;-80
2023/06/03 05:02:13;;;;;;;13.95;9.15;;;;;;;10.58;100.00;101893.53;10505922;28;20496;-82
2023/06/03 05:07:13;;;;;;;14.18;6.97;;;;;;;11.04;100.00;101881.53;10517491;28;20075;-82
2023/06/03 05:12:14;;;;;;;9.43;6.57;;;;;;;11.53;100.00;101857.41;10507143;28;20115;-80
2023/06/03 05:17:14;;;;;;;13.05;5.97;;;;;;;12.34;100.00;101854.19;10536883;28;20384;-80
2023/06/03 05:22:15;;;;;;;9.43;5.75;;;;;;;12.84;100.00;101849.03;10502350;28;20166;-81
2023/06/03 05:27:16;;;;;;;15.23;5.38;;;;;;;13.86;100.00;101854.31;10488920;28;20104;-82
2023/06/03 05:32:16;;;;;;;12.15;6.03;;;;;;;14.97;100.00;101842.88;10496513;28;20119;-78
2023/06/03 05:37:17;;;;;;;7.93;4.95;;;;;;;15.57;100.00;101841.09;10484245;28;20040;-80
2023/06/03 05:42:17;;;;;;;9.30;4.65;;;;;;;15.98;100.00;101839.31;10488476;28;20040;-81
2023/06/03 05:47:18;;;;;;;17.10;6.50;;;;;;;16.54;100.00;101837.94;10517595;28;20469;-81
2023/06/03 05:52:18;;;;;;;8.97;4.73;;;;;;;17.38;100.00;101843.69;10523132;28;20123;-80
2023/06/03 05:57:19;;;;;;;15.20;4.17;;;;;;;17.71;100.00;101846.59;10504186;28;20123;-82
2023/06/03 06:02:20;;;;;;;14.23;5.93;;;;;;;18.49;93.23;101835.84;10513833;28;20578;-82
2023/06/03 06:07:20;;;;;;;5.00;3.00;;;;;;;18.93;82.93;101840.66;10488708;28;20120;-82
2023/06/03 06:12:21;;;;;;;9.40;5.40;;;;;;;19.59;79.78;101844.25;10504687;28;20442;-81
2023/06/03 06:17:21;;;;;;;8.50;4.60;;;;;;;19.74;76.83;101845.50;10488431;28;20130;-81
2023/06/03 06:22:22;;;;;;;10.10;3.63;;;;;;;20.17;71.81;101845.69;10465879;28;20060;-81
2023/06/03 06:27:22;;;;;;;9.30;3.63;;;;;;;20.95;65.13;101845.63;10507661;28;20340;-78
2023/06/03 06:32:24;;;;;;;7.13;3.83;;;;;;;21.13;66.47;101847.78;10529650;28;20498;-82
2023/06/03 06:37:24;;;;;;;;;;;;;;;21.55;60.08;101845.88;10527929;28;20115;-83
2023/06/03 06:42:32;;;;;;;7.37;3.23;;;;;;;21.59;61.19;101846.84;10486873;28;19920;-82
2023/06/03 06:47:35;;;;;;;8.48;3.63;;;;;;;22.51;53.85;101842.09;10503568;28;20040;-81
2023/06/03 06:52:36;;;;;;;7.85;3.28;;;;;;;22.41;56.26;101850.81;10470193;28;20037;-81
2023/06/03 06:57:36;;;;;;;5.17;2.23;;;;;;;23.06;50.59;101840.97;10470599;28;20433;-82
2023/06/03 07:02:37;;;;;;;5.03;2.90;;;;;;;23.34;52.25;101843.97;10487359;28;20043;-81
2023/06/03 07:07:38;;;;;;;8.23;3.15;;;;;;;23.02;54.47;101837.41;10518959;28;20036;-79
2023/06/03 07:12:38;;;;;;;8.63;3.40;;;;;;;24.17;53.35;101846.50;10529602;28;20119;-80
2023/06/03 07:17:42;;;;;;;6.47;2.20;;;;;;;24.67;48.48;101844.09;10494453;28;20470;-81
2023/06/03 07:22:42;;;;;;;5.60;2.83;;;;;;;25.21;45.74;101846.97;10510386;28;20509;-82
2023/06/03 07:27:44;;;;;;;5.63;3.10;;;;;;;25.40;44.18;101841.63;10505819;28;20067;-81
2023/06/03 07:32:44;;;;;;;6.67;3.20;;;;;;;25.53;41.18;101845.28;10477295;28;20126;-78
2023/06/03 07:37:45;;;;;;;7.37;2.67;;;;;;;25.17;43.74;101844.28;10509682;28;20279;-82
2023/06/03 07:42:47;;;;;;;5.10;1.70;;;;;;;25.43;39.78;101844.31;10508519;28;20524;-80
2023/06/03 07:47:48;;;;;;;5.85;2.65;;;;;;;25.77;41.19;101832.75;10527807;28;20549;-79
2023/06/03 07:52:57;;;;;;;3.23;1.37;;;;;;;26.35;38.69;101830.91;10509168;28;20130;-82
2023/06/03 07:57:58;;;;;;;6.03;2.72;;;;;;;26.11;39.43;101835.41;10532002;28;20123;-81
2023/06/03 08:02:59;;;;;;;8.07;2.93;;;;;;;26.80;37.67;101834.31;10534549;28;20039;-81
2023/06/03 08:08:03;;;;;;;4.68;1.80;;;;;;;27.29;35.38;101836.75;10474661;28;20036;-81
2023/06/03 08:13:04;;;;;;;5.35;1.40;;;;;;;26.89;34.95;101832.50;10509669;28;20036;-93
2023/06/03 08:18:06;;;;;;;9.15;2.95;;;;;;;27.22;34.39;101828.72;10526221;28;20040;-83
2023/06/03 08:23:06;;;;;;;;;;;;;;;26.97;35.58;101825.31;10476216;28;20845;-87
2023/06/03 08:28:06;;;;;;;6.77;1.60;;;;;;;27.06;33.20;101818.97;10516287;28;19920;-83
2023/06/03 08:33:07;;;;;;;3.85;2.03;;;;;;;27.74;32.76;101826.56;10477359;28;20040;-90
2023/06/03 08:38:07;;;;;;;6.33;1.50;;;;;;;27.51;32.15;101816.00;10508893;28;20119;-90
2023/06/03 08:43:08;;;;;;;2.37;1.00;;;;;;;27.73;33.01;101802.38;10491125;28;20040;-84
2023/06/03 08:48:27;;;;;;;8.80;1.80;;;;;;;27.26;31.15;101810.78;10506074;28;20567;-88
2023/06/03 08:53:27;;;;;;;5.05;1.98;;;;;;;27.35;32.67;101816.09;10521710;28;20533;-88
2023/06/03 08:58:32;;;;;;;5.07;0.97;;;;;;;27.90;31.04;101810.28;10479439;28;20064;-86
2023/06/03 09:03:33;;;;;;;3.17;1.65;;;;;;;28.52;29.80;101815.00;10493905;28;20059;-82
2023/06/03 09:08:35;;;;;;;11.20;1.77;;;;;;;27.96;27.21;101820.97;10469620;28;20472;-80
2023/06/03 09:13:36;;;;;;;4.32;1.60;;;;;;;27.71;28.68;101818.50;10494935;28;20582;-80
2023/06/03 09:18:36;;;;;;;6.22;1.40;;;;;;;27.50;30.76;101822.28;10481566;28;20143;-82
2023/06/03 09:23:40;;;;;;;2.93;1.20;;;;;;;28.31;28.41;101824.25;10480470;28;20059;-82
2023/06/03 09:28:40;;;;;;;4.30;1.38;;;;;;;28.97;28.24;101820.72;10481986;28;20053;-82
2023/06/03 09:33:41;;;;;;;4.63;1.63;;;;;;;28.86;31.55;101823.56;10499193;28;20115;-84
2023/06/03 09:38:55;;;;;;;5.57;1.60;;;;;;;28.21;29.86;101813.59;10481463;28;20083;-88
2023/06/03 09:44:03;;;;;;;2.97;1.42;;;;;;;27.50;27.79;101822.28;10465876;28;20043;-86
2023/06/03 09:49:34;;;;;;;1.30;0.90;;;;;;;27.92;29.02;101816.53;10478151;28;20123;-85
2023/06/03 09:54:35;;;;;;;4.95;1.63;;;;;;;28.21;29.79;101809.97;10461369;28;20043;-82
2023/06/03 09:59:35;;;;;;;3.57;1.53;;;;;;;28.22;26.99;101820.75;10455347;28;20039;-88
2023/06/03 10:04:44;;;;;;;4.27;2.00;;;;;;;28.03;30.34;101824.50;10456341;28;20539;-85
2023/06/03 10:09:46;;;;;;;5.63;2.00;;;;;;;27.89;29.23;101825.53;10472991;28;20107;-85
2023/06/03 10:14:48;;;;;;;6.57;2.38;;;;;;;28.36;30.16;101820.56;10454867;28;20050;-85
2023/06/03 10:19:48;;;;;;;2.92;1.27;;;;;;;27.73;30.05;101823.91;10497009;28;20044;-84
2023/06/03 10:24:49;;;;;;;6.47;2.40;;;;;;;28.02;29.89;101828.97;10528659;28;20112;-81
2023/06/03 10:29:56;;;;;;;4.18;1.70;;;;;;;27.99;29.40;101823.63;10574196;28;20070;-86
2023/06/03 10:34:56;;;;;;;5.63;1.40;;;;;;;28.48;30.40;101810.56;10501244;28;20041;-84
2023/06/03 10:39:57;;;;;;;4.63;1.50;;;;;;;27.75;27.68;101814.91;10516809;28;20127;-83
2023/06/03 10:44:57;;;;;;;2.77;1.37;;;;;;;28.18;29.76;101812.72;10496477;28;20108;-81
2023/06/03 10:50:09;;;;;;;3.23;1.60;;;;;;;29.09;28.63;101805.28;10504191;28;20037;-81
2023/06/03 10:55:30;;;;;;;5.47;1.90;;;;;;;29.18;29.62;101817.72;10486903;28;20095;-82
2023/06/03 11:00:52;;;;;;;8.93;1.77;;;;;;;29.07;27.96;101812.50;10508535;28;20043;-81
2023/06/03 11:05:53;;;;;;;17.75;2.63;;;;;;;28.70;27.85;101821.97;10492319;28;20047;-83
2023/06/03 11:10:53;;;;;;;6.60;2.10;;;;;;;28.98;30.16;101806.31;10487036;28;20052;-83
2023/06/03 11:15:59;;;;;;;7.47;1.57;;;;;;;28.42;30.42;101806.16;10470109;28;20263;-85
2023/06/03 11:20:59;;;;;;;4.85;1.75;;;;;;;28.23;30.16;101805.47;10538149;28;20044;-80
2023/06/03 11:26:33;;;;;;;7.47;1.47;;;;;;;27.91;29.54;101810.28;10512527;28;20064;-82
2023/06/03 11:31:33;;;;;;;6.63;2.15;;;;;;;27.62;29.95;101802.47;10537143;28;20109;-81
2023/06/03 11:36:47;;;;;;;2.65;1.48;;;;;;;27.98;28.17;101811.09;10505613;28;20090;-79
2023/06/03 11:42:10;;;;;;;4.05;1.70;;;;;;;28.08;31.36;101814.59;10510022;28;20044;-78
2023/06/03 11:47:10;;;;;;;4.30;2.05;;;;;;;28.89;28.73;101798.38;10487978;28;20048;-77
2023/06/03 11:52:11;;;;;;;8.13;2.33;;;;;;;29.42;27.48;101806.59;10486084;28;20041;-80
2023/06/03 11:57:13;;;;;;;5.03;1.50;;;;;;;29.62;27.71;101796.38;10488291;28;20043;-79
2023/06/03 12:02:13;;;;;;;9.25;2.25;;;;;;;28.95;27.71;101797.41;10510023;28;20551;-80
2023/06/03 12:07:17;;;;;;;7.17;1.97;;;;;;;28.35;28.38;101791.88;10509195;28;20040;-81
2023/06/03 12:12:18;;;;;;;4.18;2.17;;;;;;;28.62;28.39;101794.25;10493326;28;20092;-79
2023/06/03 12:17:19;;;;;;;4.20;1.60;;;;;;;28.83;29.23;101790.38;10524802;28;20123;-79
2023/06/03 12:22:25;;;;;;;3.78;2.20;;;;;;;29.15;26.99;101791.69;10500741;28;20266;-79
2023/06/03 12:27:26;;;;;;;4.13;2.25;;;;;;;29.40;28.81;101791.34;10491198;28;20088;-80
2023/06/03 12:32:28;;;;;;;5.38;2.30;;;;;;;28.66;28.03;101799.56;10491035;28;20116;-79
2023/06/03 12:37:30;;;;;;;5.90;1.85;;;;;;;27.99;29.09;101775.22;10505638;28;20032;-77
2023/06/03 12:42:42;;;;;;;7.43;2.72;;;;;;;27.89;29.74;101779.81;10478490;28;20039;-79
2023/06/03 12:47:44;;;;;;;7.13;1.75;;;;;;;27.75;28.98;101765.63;10502684;28;20068;-78
2023/06/03 12:52:45;;;;;;;8.13;2.42;;;;;;;26.55;29.66;101777.16;10504081;28;20032;-79
2023/06/03 12:57:46;;;;;;;6.10;3.17;;;;;;;25.43;31.17;101789.84;10487268;28;20040;-78
2023/06/03 13:02:53;;;;;;;8.05;2.38;;;;;;;25.99;32.62;101779.09;10490668;28;20530;-77
2023/06/03 13:07:54;;;;;;;6.05;2.38;;;;;;;27.36;30.66;101769.50;10507906;28;20126;-78
2023/06/03 13:12:54;;;;;;;10.70;3.23;;;;;;;27.96;30.73;101767.19;10506600;28;20043;-77
2023/06/03 13:17:55;;;;;;;11.40;2.60;;;;;;;27.62;29.48;101763.03;10520743;28;20032;-81
2023/06/03 13:22:56;;;;;;;2.40;1.55;;;;;;;27.65;29.85;101760.31;10492921;28;20404;-79
2023/06/03 13:27:56;;;;;;;5.13;2.10;;;;;;;28.14;29.17;101763.44;10522605;28;20040;-77
2023/06/03 13:32:57;;;;;;;7.83;3.03;;;;;;;28.54;30.31;101760.22;10506350;28;20032;-78
2023/06/03 13:37:57;;;;;;;7.37;2.13;;;;;;;28.65;29.51;101756.50;10506538;28;20127;-79
2023/06/03 13:42:58;;;;;;;5.67;2.17;;;;;;;28.10;29.19;101759.84;10506092;28;20047;-80
2023/06/03 13:47:59;;;;;;;7.28;2.38;;;;;;;27.52;29.59;101764.91;10473648;28;20036;-80
2023/06/03 13:52:59;;;;;;;6.07;2.10;;;;;;;27.50;28.66;101757.78;10501965;28;20077;-80
2023/06/03 13:58:00;;;;;;;8.13;2.40;;;;;;;28.08;29.82;101747.31;10456065;28;20209;-80
2023/06/03 14:03:00;;;;;;;6.20;1.47;;;;;;;28.03;28.44;101735.72;10498879;28;20037;-80
2023/06/03 14:08:01;;;;;;;4.53;1.83;;;;;;;27.48;28.99;101736.25;10484553;28;20127;-79
2023/06/03 14:13:01;;;;;;;5.20;1.93;;;;;;;27.17;29.51;101741.00;10501902;28;20131;-78
2023/06/03 14:18:02;;;;;;;4.70;1.73;;;;;;;26.34;29.27;101737.91;10480789;28;20131;-78
2023/06/03 14:23:03;;;;;;;5.47;1.63;;;;;;;26.61;31.60;101730.59;10480679;28;20503;-79
2023/06/03 14:28:03;;;;;;;3.97;1.40;;;;;;;26.39;29.28;101720.88;10498421;28;20071;-79
2023/06/03 14:33:04;;;;;;;4.73;1.57;;;;;;;25.14;30.66;101716.59;10481326;28;20453;-79
2023/06/03 14:38:04;;;;;;;4.97;1.87;;;;;;;24.02;31.97;101718.94;10482135;28;20040;-80
2023/06/03 14:43:05;;;;;;;2.50;1.17;;;;;;;24.09;31.76;101710.94;10482451;28;20046;-79
2023/06/03 14:48:05;;;;;;;3.67;2.60;;;;;;;24.64;30.60;101712.94;10495394;28;20510;-77
2023/06/03 14:53:06;;;;;;;5.30;1.47;;;;;;;25.03;32.97;101705.00;10512517;28;20055;-78
2023/06/03 14:58:06;;;;;;;7.10;1.77;;;;;;;24.78;32.40;101707.66;10512340;28;20506;-76
2023/06/03 15:03:07;;;;;;;7.87;2.70;;;;;;;23.67;31.11;101694.66;10497410;28;20610;-77
2023/06/03 15:08:08;;;;;;;2.30;1.53;;;;;;;22.87;34.10;101701.13;10469685;28;20124;-77
2023/06/03 15:13:08;;;;;;;4.60;1.73;;;;;;;22.59;33.61;101704.38;10452837;28;20048;-76
2023/06/03 15:18:09;;;;;;;4.23;1.73;;;;;;;22.36;34.79;101695.19;10506984;28;20115;-76
2023/06/03 15:23:09;;;;;;;7.07;2.47;;;;;;;22.11;32.91;101710.88;10472647;28;20047;-78
2023/06/03 15:28:10;;;;;;;3.63;1.60;;;;;;;21.88;34.51;101695.47;10473545;28;20080;-79
2023/06/03 15:33:10;;;;;;;4.93;2.20;;;;;;;21.91;35.39;101698.16;10479172;28;20040;-79
2023/06/03 15:38:14;;;;;;;2.70;1.60;;;;;;;21.77;34.71;101702.41;10494287;28;20123;-79
2023/06/03 15:43:16;;;;;;;4.45;1.75;;;;;;;21.77;34.42;101707.75;10509524;28;20040;-80
2023/06/03 15:48:17;;;;;;;278.98;219.13;;;;;;;21.63;35.01;101689.78;10492673;28;20069;-81
2023/06/03 15:53:18;;;;;;;8.10;5.33;;;;;;;21.69;33.41;101695.19;10488929;28;20044;-80
2023/06/03 15:58:19;;;;;;;14.88;8.27;;;;;;;21.84;34.02;101693.63;10506073;28;20032;-80
2023/06/03 16:03:19;;;;;;;6.03;2.23;;;;;;;21.91;34.58;101692.84;10503341;28;20105;-80
2023/06/03 16:08:20;;;;;;;35.67;29.00;;;;;;;21.88;32.81;101690.13;10513483;28;20036;-80
2023/06/03 16:13:21;;;;;;;5.57;3.03;;;;;;;21.64;32.99;101696.91;10514384;28;20060;-84
2023/06/03 16:18:26;;;;;;;3.77;1.30;;;;;;;21.66;34.17;101694.28;10506226;28;20047;-84
2023/06/03 16:23:29;;;;;;;4.97;1.52;;;;;;;21.62;35.52;101682.63;10522173;28;20048;-83
2023/06/03 16:28:30;;;;;;;175.20;134.40;;;;;;;21.44;33.75;101685.94;10507222;28;20042;-81
2023/06/03 16:33:31;;;;;;;8.20;5.30;;;;;;;21.19;32.51;101690.84;10490526;28;20059;-82
2023/06/03 16:38:32;;;;;;;6.25;3.28;;;;;;;21.03;34.18;101687.03;10503578;28;20044;-82
2023/06/03 16:43:33;;;;;;;65.82;46.00;;;;;;;21.05;33.04;101687.06;10505355;28;20426;-85
2023/06/03 16:48:33;;;;;;;6.17;2.60;;;;;;;21.06;33.16;101681.75;10525341;28;20135;-77
2023/06/03 16:53:34;;;;;;;7.22;3.28;;;;;;;20.85;32.64;101676.97;10507837;28;20119;-79
2023/06/03 16:58:34;;;;;;;6.70;2.93;;;;;;;20.83;33.06;101678.69;10506850;28;20169;-78
2023/06/03 17:03:35;;;;;;;4.10;1.00;;;;;;;20.66;32.27;101692.56;10506860;28;20123;-80
2023/06/03 17:08:35;;;;;;;2.83;0.82;;;;;;;20.51;34.54;101686.94;10524315;28;20118;-79
2023/06/03 17:13:42;;;;;;;2.97;1.48;;;;;;;20.36;35.19;101696.41;10519831;28;20036;-78
2023/06/03 17:18:42;;;;;;;3.33;1.08;;;;;;;20.22;33.60;101688.13;10517273;28;20483;-79
2023/06/03 17:23:43;;;;;;;5.25;0.80;;;;;;;20.06;34.79;101688.66;10478816;28;20039;-81
2023/06/03 17:28:43;;;;;;;1.88;0.70;;;;;;;20.02;33.70;101686.81;10464570;28;20094;-82
2023/06/03 17:33:47;;;;;;;4.72;1.33;;;;;;;19.79;36.33;101685.41;10470370;28;20036;-81
2023/06/03 17:38:48;;;;;;;8.70;1.08;;;;;;;19.73;37.25;101681.72;10492618;28;20120;-83
2023/06/03 17:43:48;;;;;;;4.22;0.90;;;;;;;19.50;37.59;101682.97;10473543;28;20039;-82
2023/06/03 17:48:49;;;;;;;1.50;0.73;;;;;;;19.24;36.77;101682.34;10504601;28;20121;-82
2023/06/03 17:53:50;;;;;;;1.98;0.95;;;;;;;19.14;37.70;101681.22;10522598;28;20078;-81
2023/06/03 17:58:50;;;;;;;1.83;0.98;;;;;;;19.08;37.91;101683.72;10497575;28;20713;-79
2023/06/03 18:03:51;;;;;;;4.53;1.40;;;;;;;19.08;36.10;101689.91;10497423;28;20441;-82
2023/06/03 18:08:52;;;;;;;3.00;1.23;;;;;;;18.80;38.21;101701.53;10503381;28;20331;-82
2023/06/03 18:13:53;;;;;;;3.55;0.88;;;;;;;18.63;36.60;101694.00;10523496;28;20118;-81
2023/06/03 18:18:53;;;;;;;0.93;0.50;;;;;;;18.54;36.79;101700.78;10527814;28;20032;-81
2023/06/03 18:23:54;;;;;;;2.92;0.98;;;;;;;18.29;38.98;101700.09;10512033;28;20508;-81
2023/06/03 18:28:54;;;;;;;1.33;0.73;;;;;;;18.11;39.65;101709.28;10513384;28;20135;-81
2023/06/03 18:33:55;;;;;;;2.17;0.93;;;;;;;17.77;39.75;101708.22;10513750;28;20028;-82
2023/06/03 18:38:55;;;;;;;2.30;1.27;;;;;;;17.54;41.55;101712.81;10513413;28;20392;-82
2023/06/03 18:43:56;;;;;;;3.97;1.20;;;;;;;17.23;43.22;101717.06;10530207;28;20132;-82
2023/06/03 18:48:56;;;;;;;3.60;1.45;;;;;;;17.10;44.50;101721.94;10531455;28;20044;-82
2023/06/03 18:53:57;;;;;;;4.97;1.00;;;;;;;17.17;43.63;101712.47;10510818;28;20173;-83
2023/06/03 18:58:57;;;;;;;3.97;0.95;;;;;;;17.04;43.25;101721.72;10512614;28;20111;-83
2023/06/03 19:04:00;;;;;;;7.57;1.60;;;;;;;16.72;44.83;101724.09;10511408;28;20036;-79
2023/06/03 19:09:00;;;;;;;2.78;0.90;;;;;;;16.64;42.91;101729.09;10512375;28;20040;-81
2023/06/03 19:14:12;;;;;;;2.45;1.02;;;;;;;16.33;44.62;101730.59;10511842;28;20123;-81
2023/06/03 19:19:12;;;;;;;2.20;1.00;;;;;;;15.92;47.35;101728.19;10495338;28;20399;-82
2023/06/03 19:24:13;;;;;;;1.02;0.65;;;;;;;15.47;50.63;101734.25;10509101;28;20119;-82
2023/06/03 19:29:13;;;;;;;1.42;0.77;;;;;;;15.11;51.97;101743.34;10509047;28;20533;-81
2023/06/03 19:34:14;;;;;;;1.58;0.82;;;;;;;14.80;55.28;101743.72;10524276;28;20436;-82
2023/06/03 19:39:16;;;;;;;3.22;1.17;;;;;;;14.35;55.67;101745.19;10493235;28;20040;-82
2023/06/03 19:44:16;;;;;;;2.57;0.70;;;;;;;14.15;56.08;101756.53;10507840;28;20059;-82
2023/06/03 19:49:17;;;;;;;0.65;0.43;;;;;;;13.87;59.13;101755.22;10507569;28;20318;-81
2023/06/03 19:54:17;;;;;;;1.90;0.95;;;;;;;13.44;64.25;101760.16;10523220;28;20128;-83
2023/06/03 19:59:19;;;;;;;1.88;1.05;;;;;;;12.99;68.01;101764.84;10502001;28;20109;-82
2023/06/03 20:04:20;;;;;;;2.85;1.00;;;;;;;12.59;72.61;101776.78;10498331;28;20036;-81
2023/06/03 20:09:26;;;;;;;7.75;2.53;;;;;;;12.39;80.87;101781.84;10521029;28;20032;-79
2023/06/03 20:14:26;;;;;;;3.13;1.05;;;;;;;12.16;83.17;101791.97;10524873;28;20097;-80
2023/06/03 20:19:27;;;;;;;4.40;0.95;;;;;;;12.19;83.19;101791.22;10524252;28;20108;-81
2023/06/03 20:24:27;;;;;;;9.68;1.80;;;;;;;12.19;85.47;101791.22;10514363;28;20119;-80
2023/06/03 20:29:28;;;;;;;0.73;0.52;;;;;;;12.19;85.69;101793.84;10508957;28;20395;-80
2023/06/03 20:34:28;;;;;;;8.25;0.95;;;;;;;12.07;95.09;101794.09;10521029;28;20135;-80
2023/06/03 20:39:29;;;;;;;1.95;0.73;;;;;;;11.97;97.92;101797.84;10533591;28;20040;-79
2023/06/03 20:44:30;;;;;;;2.88;0.90;;;;;;;11.94;98.38;101810.81;10507133;28;20066;-79
2023/06/03 20:49:30;;;;;;;4.47;0.90;;;;;;;11.95;98.37;101795.97;10508587;28;20063;-79
2023/06/03 20:54:33;;;;;;;5.32;1.00;;;;;;;11.92;96.20;101809.81;10501830;28;20170;-79
2023/06/03 20:59:34;;;;;;;2.25;1.08;;;;;;;12.00;98.27;101813.81;10505487;28;20047;-79
2023/06/03 21:04:34;;;;;;;7.15;1.20;;;;;;;11.71;100.00;101812.13;10502959;28;20115;-78
2023/06/03 21:09:34;;;;;;;1.85;0.90;;;;;;;11.53;100.00;101811.91;10520511;28;20073;-81
2023/06/03 21:14:35;;;;;;;4.32;1.10;;;;;;;11.41;100.00;101813.00;10498108;28;20123;-82
2023/06/03 21:19:36;;;;;;;4.55;2.10;;;;;;;11.24;100.00;101817.25;10524039;28;20078;-79
2023/06/03 21:24:36;;;;;;;7.70;1.10;;;;;;;11.19;100.00;101816.06;10524801;28;20038;-82
2023/06/03 21:29:37;;;;;;;2.17;0.70;;;;;;;11.01;100.00;101816.78;10501975;28;20551;-79
2023/06/03 21:34:37;;;;;;;5.53;1.48;;;;;;;10.71;100.00;101823.63;10504291;28;20394;-80
2023/06/03 21:39:38;;;;;;;4.00;1.67;;;;;;;10.45;100.00;101828.13;10487897;28;20115;-80
2023/06/03 21:44:39;;;;;;;4.75;1.38;;;;;;;10.25;100.00;101825.09;10506604;28;20071;-80
2023/06/03 21:49:40;;;;;;;3.60;1.35;;;;;;;10.21;100.00;101830.94;10502740;28;20044;-80
2023/06/03 21:54:41;;;;;;;5.10;0.90;;;;;;;10.12;100.00;101835.56;10529333;28;20040;-79
2023/06/03 21:59:42;;;;;;;1.97;0.87;;;;;;;10.07;100.00;101847.44;10498813;28;20039;-80
2023/06/03 22:04:42;;;;;;;2.05;0.88;;;;;;;9.92;100.00;101850.88;10495249;28;20059;-79
2023/06/03 22:09:43;;;;;;;4.45;0.90;;;;;;;9.79;100.00;101845.63;10532666;28;20097;-80
2023/06/03 22:14:43;;;;;;;3.42;1.67;;;;;;;9.73;100.00;101835.69;10532307;28;20170;-80
2023/06/03 22:19:44;;;;;;;4.80;1.50;;;;;;;9.77;100.00;101839.41;10521721;28;20043;-79
2023/06/03 22:24:44;;;;;;;2.15;0.98;;;;;;;9.60;100.00;101841.78;10504402;28;20123;-79
2023/06/03 22:29:45;;;;;;;5.00;1.48;;;;;;;9.38;100.00;101837.72;10529321;28;20046;-80
2023/06/03 22:34:45;;;;;;;2.45;1.38;;;;;;;9.31;100.00;101832.88;10509782;28;20034;-80
2023/06/03 22:39:48;;;;;;;1.45;0.98;;;;;;;9.18;100.00;101843.28;10510922;28;20068;-79
2023/06/03 22:44:49;;;;;;;1.15;0.65;;;;;;;9.03;100.00;101843.16;10496547;28;20051;-79
2023/06/03 22:49:49;;;;;;;4.40;1.10;;;;;;;9.00;100.00;101843.81;10512504;28;20055;-80
2023/06/03 22:54:50;;;;;;;3.20;1.20;;;;;;;9.01;100.00;101845.63;10516314;28;20040;-79
2023/06/03 22:59:50;;;;;;;4.45;1.05;;;;;;;8.93;100.00;101844.19;10494983;28;20134;-79